Pagrindinis puslapis
METAR-TAF:

METAR-TAF

Oro uostai :

Eskišechiras, Turkija

platuma: 39-48-36N, ilguma: 30-31-10E, Aukštis: 789 m

Dabartinis oras

Ataskaita buvo paskelbta 1 valandą ir 11 minutes, ne 08:50 UTC
Vėjas 6 kt iš Šiaurės Rytų, svyruoja nuo Šiaurės ir Rytų
Temperatūra 12°C
Drėgmė 40%
Slėgis 1023 hPa
Matomumas 10 km arba daugiau
nėra debesų žemiau 1500 m ir nėra kamuolinių lietaus debesų

METAR: LTBY 270850Z 05006KT 350V090 CAVOK 12/M01 Q1023

Laikas: 13:01 (10:01 UTC)

Prognozė

Ataskaita buvo paskelbta 2 valandos ir 21 minutes, ne 07:40 UTC
Prognozė galioja nuo 27 metu 09 UTC su 27 metu 18 UTC
Vėjas 2 kt nuo kintamojo kryptimis
Matomumas 10 km arba daugiau
nėra debesų žemiau 1500 m ir nėra kamuolinių lietaus debesų
Tapsmas
nuo 27 metu 10 UTC su 27 metu 12 UTC
Mažai debesys ne aukštis 4000 ft

TAF: LTBY 270740Z 2709/2718 VRB02KT CAVOK BECMG 2710/2712 FEW040

Orai ataskaitas ir orų prognozės (METAR, TAF).

turimą stotys yra geltonos ir raudonos taškus žemėlapyje.

Perkelti pele per norėdami pamatyti stoties vardą.

Tada spustelėkite, norėdami matyti oro stebėjimo ir prognozės.

Norėdami pakeisti žemėlapį: spustelėkite ant žalios mygtukų su juodo kryžiaus žemyn,; žalią mygtuką su brūkšneliu, jei norite nutolinti; arba žalių rodyklių gretimoms žemėlapius.


METAR-TAF: